Flight Track Log - Related Links

Times and Time Zones

All times are in EDT time to prevent confusion due to time zone crossing. See the AAL1624 flight status page for this flight to view local times or setup timezone preferences in your user account.

Time Position Orientation Groundspeed Altitude Reporting Facility
EDT Latitude Longitude Course Direction KTS MPH feet Rate Location/Type
Wed 11:21:17 PM 41.9970 -87.9410 296° West 149 171 1,500  Level FlightAware ADS-B
Wed 11:21:32 PM 42.0000 -87.9550 286° West 141 162 2,000 1,867 Climbing FlightAware ADS-B
Wed 11:22:02 PM 42.0010 -87.9840 273° West 171 197 2,900 1,855 Climbing FlightAware ADS-B
Wed 11:22:27 PM 42.0010 -88.0130 270° West 200 230 3,700 2,400 Climbing FlightAware ADS-B
Wed 11:22:42 PM 42.0000 -88.0340 266° West 212 244 4,500 2,533 Climbing FlightAware ADS-B
Wed 11:23:12 PM 41.9990 -88.0730 268° West 232 267 5,600 2,533 Climbing FlightAware ADS-B
Wed 11:23:27 PM 41.9990 -88.0960 270° West 238 274 6,400 3,000 Climbing FlightAware ADS-B
Wed 11:23:52 PM 41.9970 -88.1330 266° West 251 289 7,600 3,164 Climbing FlightAware ADS-B
Wed 11:24:22 PM 41.9960 -88.1770 268° West 253 291 9,300 3,600 Climbing FlightAware ADS-B
Wed 11:25:02 PM 41.9890 -88.2430 262° West 263 303 11,800 3,600 Climbing FlightAware ADS-B
Wed 11:25:47 PM 41.9710 -88.3130 251° West 274 315 14,400 3,075 Climbing FlightAware ADS-B
Wed 11:26:22 PM 41.9550 -88.3720 250° West 304 350 15,900 2,175 Climbing FlightAware ADS-B
Wed 11:27:07 PM 41.9320 -88.4600 251° West 350 403 17,300 2,267 Climbing FlightAware ADS-B
Wed 11:27:52 PM 41.9040 -88.5590 249° West 374 430 19,300 2,612 Climbing FlightAware ADS-B
Wed 11:28:32 PM 41.8800 -88.6480 250° West 389 448 21,000 2,541 Climbing FlightAware ADS-B
Wed 11:29:17 PM 41.8530 -88.7490 250° West 399 459 22,900 2,612 Climbing FlightAware ADS-B
Wed 11:29:57 PM 41.8280 -88.8420 250° West 401 461 24,700 2,625 Climbing FlightAware ADS-B
Wed 11:30:37 PM 41.7980 -88.9370 247° West 405 466 26,400 2,329 Climbing FlightAware ADS-B
Wed 11:31:22 PM 41.7580 -89.0310 240° Southwest 406 467 28,000 2,259 Climbing FlightAware ADS-B
Wed 11:32:02 PM 41.7200 -89.1180 240° Southwest 401 461 29,600 2,325 Climbing FlightAware ADS-B
Wed 11:32:42 PM 41.6820 -89.2070 240° Southwest 397 457 31,100 1,694 Climbing FlightAware ADS-B
Wed 11:33:27 PM 41.6400 -89.3040 240° Southwest 403 464 32,000 635 Climbing FlightAware ADS-B
Wed 11:34:07 PM 41.6030 -89.3890 240° Southwest 403 464 32,000  Level FlightAware ADS-B
Wed 11:34:52 PM 41.5590 -89.4890 240° Southwest 403 464 32,000  Level FlightAware ADS-B
Wed 11:35:32 PM 41.5240 -89.5700 240° Southwest 405 466 32,000  Level FlightAware ADS-B
Wed 11:36:12 PM 41.4860 -89.6570 240° Southwest 405 466 32,000  Level FlightAware ADS-B
Wed 11:36:57 PM 41.4420 -89.7570 240° Southwest 405 466 32,000  Level FlightAware ADS-B
Wed 11:37:37 PM 41.4040 -89.8430 240° Southwest 406 467 32,000  Level FlightAware ADS-B
Wed 11:38:22 PM 41.3610 -89.9390 239° Southwest 405 466 32,000  Level FlightAware ADS-B
Wed 11:39:02 PM 41.3250 -90.0220 240° Southwest 404 465 32,000  Level FlightAware ADS-B
Wed 11:39:42 PM 41.2900 -90.1020 240° Southwest 403 464 32,000  Level FlightAware ADS-B
Wed 11:40:27 PM 41.2440 -90.2040 239° Southwest 403 464 32,000  Level FlightAware ADS-B
Wed 11:41:07 PM 41.2070 -90.2860 239° Southwest 403 464 32,000  Level FlightAware ADS-B
Wed 11:41:52 PM 41.1640 -90.3830 240° Southwest 405 466 32,000  Level FlightAware ADS-B
Wed 11:42:32 PM 41.1270 -90.4640 239° Southwest 405 466 32,000  Level FlightAware ADS-B
Wed 11:43:17 PM 41.0810 -90.5660 239° Southwest 407 468 32,000  Level FlightAware ADS-B
Wed 11:43:57 PM 41.0420 -90.6520 239° Southwest 408 470 32,000  Level FlightAware ADS-B
Wed 11:44:42 PM 40.9980 -90.7490 239° Southwest 407 468 32,000  Level FlightAware ADS-B
Wed 11:45:22 PM 40.9590 -90.8360 239° Southwest 408 470 32,000  Level FlightAware ADS-B
Wed 11:46:02 PM 40.9200 -90.9200 238° Southwest 408 470 32,000  Level FlightAware ADS-B
Wed 11:46:42 PM 40.8830 -91.0010 239° Southwest 408 470 32,000  Level FlightAware ADS-B
Wed 11:47:27 PM 40.8380 -91.1000 239° Southwest 408 470 32,000  Level FlightAware ADS-B
Wed 11:48:07 PM 40.7980 -91.1870 239° Southwest 408 470 32,000  Level FlightAware ADS-B
Wed 11:48:47 PM 40.7630 -91.2620 238° Southwest 408 470 32,000  Level FlightAware ADS-B
Wed 11:49:32 PM 40.7150 -91.3670 239° Southwest 408 470 32,000  Level FlightAware ADS-B
Wed 11:50:17 PM 40.6730 -91.4560 238° Southwest 408 470 32,000  Level FlightAware ADS-B
Wed 11:50:57 PM 40.6310 -91.5460 238° Southwest 406 467 32,000  Level FlightAware ADS-B
Wed 11:51:37 PM 40.5940 -91.6250 238° Southwest 406 467 32,000  Level FlightAware ADS-B
Wed 11:52:22 PM 40.5470 -91.7270 239° Southwest 407 468 32,000  Level FlightAware ADS-B
Wed 11:53:02 PM 40.5080 -91.8090 238° Southwest 409 471 32,000  Level FlightAware ADS-B
Wed 11:53:42 PM 40.4720 -91.8850 238° Southwest 409 471 32,000  Level FlightAware ADS-B
Wed 11:54:27 PM 40.4220 -91.9910 238° Southwest 411 473 32,000  Level FlightAware ADS-B
Wed 11:55:12 PM 40.3790 -92.0820 238° Southwest 411 473 32,000  Level FlightAware ADS-B
Wed 11:55:52 PM 40.3370 -92.1690 238° Southwest 413 475 32,000  Level FlightAware ADS-B
Wed 11:56:32 PM 40.2980 -92.2530 239° Southwest 414 476 32,000  Level FlightAware ADS-B
Wed 11:57:17 PM 40.2520 -92.3490 238° Southwest 415 478 32,000  Level FlightAware ADS-B
Wed 11:57:57 PM 40.2100 -92.4350 237° Southwest 414 476 32,000  Level FlightAware ADS-B
Wed 11:58:37 PM 40.1740 -92.5080 237° Southwest 414 476 32,000 -847 Level FlightAware ADS-B
Wed 11:59:22 PM 40.1280 -92.6120 240° Southwest 397 457 30,800 -1,500 Descending FlightAware ADS-B
Wed 11:59:57 PM 40.1010 -92.6800 243° Southwest 398 458 30,000 -1,694 Descending FlightAware ADS-B
Thu 12:00:47 AM 40.0570 -92.7950 243° Southwest 414 476 28,400 -2,000 Descending FlightAware ADS-B
Thu 12:01:27 AM 40.0220 -92.8840 243° Southwest 415 478 27,000 -2,250 Descending FlightAware ADS-B
Thu 12:02:07 AM 39.9880 -92.9730 244° Southwest 407 468 25,400 -2,471 Descending FlightAware ADS-B
Thu 12:02:52 AM 39.9480 -93.0730 242° Southwest 402 463 23,500 -2,533 Descending FlightAware ADS-B
Thu 12:03:37 AM 39.9110 -93.1680 243° Southwest 392 451 21,600 -2,400 Descending FlightAware ADS-B
Thu 12:04:17 AM 39.8800 -93.2490 244° Southwest 377 434 20,100 -2,400 Descending FlightAware ADS-B
Thu 12:04:57 AM 39.8480 -93.3280 242° Southwest 365 420 18,400 -2,471 Descending FlightAware ADS-B
Thu 12:05:42 AM 39.8140 -93.4160 243° Southwest 352 405 16,600 -2,400 Descending FlightAware ADS-B
Thu 12:06:22 AM 39.7840 -93.4900 242° Southwest 345 397 15,000 -2,400 Descending FlightAware ADS-B
Thu 12:07:02 AM 39.7560 -93.5610 243° Southwest 339 390 13,400 -2,259 Descending FlightAware ADS-B
Thu 12:07:47 AM 39.7240 -93.6420 243° Southwest 333 383 11,800 -1,200 Descending FlightAware ADS-B
Thu 12:08:27 AM 39.6970 -93.7100 243° Southwest 328 377 11,700 -71 Descending FlightAware ADS-B
Thu 12:09:12 AM 39.6630 -93.7940 242° Southwest 331 381 11,700  Level FlightAware ADS-B
Thu 12:09:52 AM 39.6350 -93.8640 243° Southwest 330 380 11,700 -75 Level FlightAware ADS-B
Thu 12:10:32 AM 39.6020 -93.9320 238° Southwest 333 383 11,600 -282 Descending FlightAware ADS-B
Thu 12:11:17 AM 39.5680 -94.0010 237° Southwest 284 327 11,300 -706 Descending FlightAware ADS-B
Thu 12:11:57 AM 39.5420 -94.0530 237° Southwest 260 299 10,600 -1,286 Descending FlightAware ADS-B
Thu 12:12:27 AM 39.5250 -94.0930 241° Southwest 248 285 9,800 -1,745 Descending FlightAware ADS-B
Thu 12:12:52 AM 39.5180 -94.1310 257° West 246 283 9,000 -1,855 Descending FlightAware ADS-B
Thu 12:13:22 AM 39.5090 -94.1740 255° West 244 281 8,100 -1,855 Descending FlightAware ADS-B
Thu 12:13:47 AM 39.5020 -94.2070 255° West 247 284 7,300 -1,855 Descending FlightAware ADS-B
Thu 12:14:17 AM 39.4930 -94.2500 255° West 246 283 6,400 -1,600 Descending FlightAware ADS-B
Thu 12:14:47 AM 39.4850 -94.2930 256° West 238 274 5,700 -1,418 Descending FlightAware ADS-B
Thu 12:15:12 AM 39.4780 -94.3250 254° West 236 272 5,100 -1,091 Descending FlightAware ADS-B
Thu 12:15:42 AM 39.4690 -94.3690 255° West 232 267 4,700 -480 Descending FlightAware ADS-B
Thu 12:16:02 AM 39.4640 -94.3920 254° West 232 267 4,700 -200 Level FlightAware ADS-B
Thu 12:16:42 AM 39.4530 -94.4490 256° West 231 266 4,500 -400 Descending FlightAware ADS-B
Thu 12:17:02 AM 39.4480 -94.4730 255° West 228 262 4,300 -267 Descending FlightAware ADS-B
Thu 12:17:27 AM 39.4420 -94.5050 256° West 228 262 4,300 -436 Level FlightAware ADS-B
Thu 12:17:57 AM 39.4344 -94.5411 256° West 225 259 3,900 -659 Descending Kansas City Center
Thu 12:18:58 AM 39.4194 -94.6111 255° West 214 246 3,300 -541 Descending Kansas City Center
Thu 12:19:59 AM 39.3967 -94.6647 241° Southwest 172 198 2,800 -645 Descending Kansas City Center
Thu 12:20:59 AM 39.3542 -94.6861 201° Southwest 144 166 2,000 -700 Descending Kansas City Center
Thu 12:21:59 AM 39.3233 -94.6972 196° South 123 142 1,400 -496 Descending Kansas City Center
Thu 12:23:00 AM 39.2914 -94.7061 192° South 124 143 1,000 -393 Descending Kansas City Center
Thu 12:24:00 AM 39.2833 -94.7000 270° West  Level FlightAware Approximate

Login

Don't have an account? Register now (free) for customized features, flight alerts, and more!